Time;durP1;ratioP1;P1;durP2;ratioP2;P2;SDS_P1;SDS_P2;PMS_P1;PMS_P2;Temp;Humidity;BMP_temperature;BMP_pressure;BME280_temperature;BME280_humidity;BME280_pressure;Samples;Min_cycle;Max_cycle;Signal;HPM_P1;HPM_P2
2022/07/25 00:01:24;;;;;;;5.60;3.20;;;24.10;77.60;;;;;;5067513;28;20044;-43
2022/07/25 00:03:50;;;;;;;4.30;3.67;;;24.10;77.90;;;;;;5069851;28;20051;-43
2022/07/25 00:06:17;;;;;;;5.05;4.00;;;24.00;78.10;;;;;;5066120;28;20431;-42
2022/07/25 00:08:44;;;;;;;5.95;3.88;;;24.00;79.20;;;;;;5054079;28;20080;-42
2022/07/25 00:11:11;;;;;;;5.95;3.45;;;23.90;78.80;;;;;;5051277;28;20045;-43
2022/07/25 00:13:37;;;;;;;4.60;3.13;;;23.90;79.50;;;;;;5059795;28;20037;-42
2022/07/25 00:16:06;;;;;;;5.93;3.72;;;23.90;78.40;;;;;;5050751;28;20095;-41
2022/07/25 00:18:33;;;;;;;7.95;3.67;;;23.90;78.80;;;;;;5051064;28;20049;-43
2022/07/25 00:21:00;;;;;;;9.45;4.00;;;23.80;78.90;;;;;;5058776;28;20136;-43
2022/07/25 00:23:26;;;;;;;6.43;3.83;;;23.80;79.40;;;;;;5065403;28;20110;-42
2022/07/25 00:25:53;;;;;;;6.43;4.35;;;23.80;79.30;;;;;;5060507;28;20045;-43
2022/07/25 00:28:20;;;;;;;6.50;4.38;;;23.70;79.70;;;;;;5069020;28;20111;-42
2022/07/25 00:30:47;;;;;;;5.50;4.72;;;23.70;79.60;;;;;;5067022;28;20087;-44
2022/07/25 00:33:15;;;;;;;7.70;4.93;;;23.70;79.70;;;;;;5054228;28;20059;-43
2022/07/25 00:35:41;;;;;;;10.00;4.70;;;23.60;80.20;;;;;;5063942;28;20140;-44
2022/07/25 00:38:08;;;;;;;6.85;5.03;;;23.60;80.50;;;;;;5071448;28;20135;-43
2022/07/25 00:40:35;;;;;;;6.88;4.85;;;23.60;80.70;;;;;;5070521;28;20187;-44
2022/07/25 00:43:02;;;;;;;5.38;4.78;;;23.50;80.70;;;;;;5054423;28;20128;-43
2022/07/25 00:45:29;;;;;;;6.38;4.88;;;23.50;80.80;;;;;;5061131;28;20144;-43
2022/07/25 00:47:55;;;;;;;6.60;5.00;;;23.40;80.90;;;;;;5074391;28;20072;-43
2022/07/25 00:50:24;;;;;;;5.63;4.93;;;23.40;81.00;;;;;;5063905;28;20478;-43
2022/07/25 00:52:51;;;;;;;7.00;5.38;;;23.40;81.30;;;;;;5064361;28;20440;-41
2022/07/25 00:55:17;;;;;;;6.40;4.93;;;23.40;81.30;;;;;;5056058;28;20040;-43
2022/07/25 00:57:44;;;;;;;6.97;5.20;;;23.30;81.00;;;;;;5057641;28;20123;-42
2022/07/25 01:00:13;;;;;;;6.93;5.95;;;23.30;81.30;;;;;;5068783;28;20131;-43
2022/07/25 01:02:39;;;;;;;6.85;6.10;;;23.30;82.00;;;;;;5058845;28;20052;-44
2022/07/25 01:05:07;;;;;;;6.80;5.47;;;23.20;82.20;;;;;;5072958;28;20127;-42
2022/07/25 01:07:35;;;;;;;9.50;6.43;;;23.20;82.90;;;;;;5063819;28;20418;-42
2022/07/25 01:10:02;;;;;;;10.88;6.35;;;23.10;82.20;;;;;;5065471;28;20130;-43
2022/07/25 01:12:29;;;;;;;10.38;6.80;;;23.10;82.50;;;;;;5034836;28;20045;-44
2022/07/25 01:14:56;;;;;;;11.65;6.93;;;23.10;82.70;;;;;;5064936;28;20101;-42
2022/07/25 01:17:23;;;;;;;10.20;7.47;;;23.00;82.90;;;;;;5066528;28;20086;-43
2022/07/25 01:19:52;;;;;;;11.57;7.70;;;23.00;83.30;;;;;;5056626;28;20091;-42
2022/07/25 01:22:20;;;;;;;8.15;7.28;;;23.00;83.50;;;;;;5058800;28;20044;-43
2022/07/25 01:24:46;;;;;;;10.73;8.20;;;22.90;83.90;;;;;;5070113;28;20085;-43
2022/07/25 01:27:13;;;;;;;8.65;7.63;;;22.90;84.10;;;;;;5057575;28;20044;-43
2022/07/25 01:29:40;;;;;;;11.73;7.97;;;22.80;84.20;;;;;;5054858;28;20564;-42
2022/07/25 01:32:07;;;;;;;10.10;8.07;;;22.80;84.60;;;;;;5057819;28;20049;-42
2022/07/25 01:34:33;;;;;;;14.23;8.68;;;22.70;84.80;;;;;;5055283;28;20447;-42
2022/07/25 01:37:00;;;;;;;12.60;8.88;;;22.70;85.10;;;;;;5062515;28;20103;-42
2022/07/25 01:39:28;;;;;;;13.25;7.93;;;22.60;85.20;;;;;;5073285;28;20040;-43
2022/07/25 01:41:55;;;;;;;10.52;8.02;;;22.70;85.10;;;;;;5057490;28;20383;-42
2022/07/25 01:44:22;;;;;;;10.20;8.10;;;22.60;85.20;;;;;;5052533;28;20061;-42
2022/07/25 01:46:49;;;;;;;10.90;8.13;;;22.60;84.90;;;;;;5053529;28;20049;-43
2022/07/25 01:49:15;;;;;;;12.13;8.13;;;22.60;85.20;;;;;;5068652;28;20049;-42
2022/07/25 01:51:42;;;;;;;10.63;8.90;;;22.60;85.10;;;;;;5058142;28;20135;-43
2022/07/25 01:54:09;;;;;;;9.48;7.38;;;22.60;85.40;;;;;;5065364;28;20123;-42
2022/07/25 01:56:37;;;;;;;12.85;10.02;;;22.60;85.00;;;;;;5063914;28;20131;-43
2022/07/25 01:59:04;;;;;;;11.15;9.23;;;22.50;85.50;;;;;;5071358;28;20543;-43
2022/07/25 02:01:30;;;;;;;12.00;9.27;;;22.50;85.70;;;;;;5072882;28;20048;-43
2022/07/25 02:03:57;;;;;;;10.70;8.70;;;22.50;85.90;;;;;;5062410;28;20123;-43
2022/07/25 02:06:24;;;;;;;11.15;7.53;;;22.40;85.90;;;;;;5068901;28;20155;-43
2022/07/25 02:08:51;;;;;;;10.35;8.95;;;22.40;85.40;;;;;;5046915;28;20488;-42
2022/07/25 02:11:17;;;;;;;10.70;8.60;;;22.40;86.00;;;;;;5058022;28;20120;-43
2022/07/25 02:13:45;;;;;;;13.60;10.15;;;22.40;86.20;;;;;;5061783;28;20057;-43
2022/07/25 02:16:12;;;;;;;16.60;10.73;;;22.40;86.60;;;;;;5062564;28;20373;-44
2022/07/25 02:18:39;;;;;;;11.68;9.32;;;22.30;86.80;;;;;;5064428;28;20105;-43
2022/07/25 02:21:08;;;;;;;16.75;10.98;;;22.30;86.60;;;;;;5064475;28;20045;-43
2022/07/25 02:23:35;;;;;;;13.98;10.25;;;22.30;87.10;;;;;;5065425;28;20049;-43
2022/07/25 02:26:02;;;;;;;13.05;9.90;;;22.30;87.10;;;;;;5053230;28;20126;-43
2022/07/25 02:28:29;;;;;;;13.95;10.00;;;22.20;87.10;;;;;;5064661;28;20045;-43
2022/07/25 02:30:57;;;;;;;13.10;9.35;;;22.20;87.30;;;;;;5057880;28;20051;-43
2022/07/25 02:33:23;;;;;;;12.30;9.18;;;22.20;87.00;;;;;;5047950;28;20126;-43
2022/07/25 02:35:50;;;;;;;12.30;9.88;;;22.20;87.00;;;;;;5056591;28;20454;-43
2022/07/25 02:38:19;;;;;;;16.25;10.57;;;22.20;87.30;;;;;;5070518;28;20448;-43
2022/07/25 02:40:46;;;;;;;13.80;10.30;;;22.20;87.50;;;;;;5071344;28;20044;-43
2022/07/25 02:43:12;;;;;;;12.93;10.57;;;22.20;87.60;;;;;;5066209;28;20049;-44
2022/07/25 02:45:39;;;;;;;14.02;10.02;;;22.10;88.00;;;;;;5062563;28;20049;-44
2022/07/25 02:48:07;;;;;;;17.52;10.10;;;22.10;88.00;;;;;;5069618;28;20547;-43
2022/07/25 02:50:34;;;;;;;14.15;10.73;;;22.10;88.70;;;;;;5060131;28;20132;-42
2022/07/25 02:53:01;;;;;;;12.90;9.15;;;22.10;88.40;;;;;;5049630;28;20040;-42
2022/07/25 02:55:28;;;;;;;13.57;10.38;;;22.00;88.40;;;;;;5053618;28;20040;-42
2022/07/25 02:57:55;;;;;;;14.10;10.52;;;22.00;88.40;;;;;;5047035;28;20087;-43
2022/07/25 03:00:21;;;;;;;12.75;11.07;;;22.00;88.40;;;;;;5064525;28;20127;-43
2022/07/25 03:02:48;;;;;;;16.45;11.00;;;22.00;88.70;;;;;;5069530;28;20094;-43
2022/07/25 03:05:16;;;;;;;15.48;10.77;;;22.00;88.80;;;;;;5067476;28;20040;-43
2022/07/25 03:07:44;;;;;;;14.27;11.20;;;22.00;88.90;;;;;;5065132;28;20083;-43
2022/07/25 03:10:11;;;;;;;13.63;10.98;;;21.90;89.20;;;;;;5072026;28;20044;-43
2022/07/25 03:12:38;;;;;;;15.65;11.00;;;21.90;89.30;;;;;;5058067;28;20076;-44
2022/07/25 03:15:05;;;;;;;14.43;11.30;;;21.90;89.70;;;;;;5058703;28;20040;-44
2022/07/25 03:17:32;;;;;;;16.13;11.43;;;21.80;89.80;;;;;;5057569;28;20135;-43
2022/07/25 03:19:59;;;;;;;13.70;11.40;;;21.90;90.00;;;;;;5060638;28;20128;-43
2022/07/25 03:22:27;;;;;;;17.25;11.65;;;21.80;90.00;;;;;;5064701;28;20079;-44
2022/07/25 03:24:54;;;;;;;13.05;10.80;;;21.80;90.00;;;;;;5071876;28;20131;-44
2022/07/25 03:27:21;;;;;;;12.52;9.80;;;21.80;90.10;;;;;;5061603;28;20132;-44
2022/07/25 03:29:47;;;;;;;13.77;9.60;;;21.80;90.10;;;;;;5064578;28;20480;-43
2022/07/25 03:32:14;;;;;;;11.98;9.85;;;21.80;90.10;;;;;;5055357;28;20067;-43
2022/07/25 03:34:41;;;;;;;12.25;10.18;;;21.70;90.10;;;;;;5059195;28;20049;-44
2022/07/25 03:37:07;;;;;;;11.98;10.52;;;21.70;90.00;;;;;;5065502;28;20122;-42
2022/07/25 03:39:36;;;;;;;15.05;11.20;;;21.70;90.30;;;;;;5070587;28;20076;-42
2022/07/25 03:42:03;;;;;;;12.10;10.75;;;21.70;90.40;;;;;;5068507;28;20150;-42
2022/07/25 03:44:30;;;;;;;13.27;7.90;;;21.70;90.30;;;;;;5056660;28;20098;-43
2022/07/25 03:46:56;;;;;;;10.18;8.85;;;21.60;90.00;;;;;;5068748;28;20082;-42
2022/07/25 03:49:23;;;;;;;11.82;9.38;;;21.60;89.80;;;;;;5065146;28;20103;-42
2022/07/25 03:51:50;;;;;;;12.57;10.48;;;21.60;90.10;;;;;;5047002;28;20096;-43
2022/07/25 03:54:17;;;;;;;13.85;10.93;;;21.60;90.20;;;;;;5055582;28;20103;-43
2022/07/25 03:56:46;;;;;;;12.18;10.15;;;21.60;90.40;;;;;;5066064;28;20128;-43
2022/07/25 03:59:14;;;;;;;12.43;11.13;;;21.60;90.60;;;;;;5038681;28;20146;-43
2022/07/25 04:01:40;;;;;;;16.33;9.85;;;21.60;90.60;;;;;;5052114;28;20483;-42
2022/07/25 04:04:08;;;;;;;9.45;8.45;;;21.50;90.40;;;;;;5067033;28;20044;-44
2022/07/25 04:06:35;;;;;;;10.35;8.75;;;21.50;90.20;;;;;;5058402;28;20068;-43
2022/07/25 04:09:02;;;;;;;12.52;11.05;;;21.50;90.20;;;;;;5055672;28;20137;-43
2022/07/25 04:11:29;;;;;;;13.30;10.25;;;21.50;90.50;;;;;;5043227;28;20388;-42
2022/07/25 04:13:57;;;;;;;11.20;9.77;;;21.50;90.60;;;;;;5052993;28;20045;-43
2022/07/25 04:16:24;;;;;;;12.13;8.90;;;21.50;90.50;;;;;;5060925;28;20083;-43
2022/07/25 04:18:51;;;;;;;15.70;10.57;;;21.50;90.40;;;;;;5069402;28;20087;-43
2022/07/25 04:21:18;;;;;;;13.82;11.73;;;21.50;90.50;;;;;;5055368;28;20055;-43
2022/07/25 04:23:44;;;;;;;12.15;10.20;;;21.50;90.90;;;;;;5063202;28;20056;-43
2022/07/25 04:26:11;;;;;;;13.30;11.23;;;21.50;90.80;;;;;;5055795;28;20139;-41
2022/07/25 04:28:38;;;;;;;17.90;12.32;;;21.50;91.10;;;;;;5068012;28;20075;-43
2022/07/25 04:31:06;;;;;;;16.02;14.20;;;21.50;91.30;;;;;;5063375;28;20499;-42
2022/07/25 04:33:33;;;;;;;21.85;14.55;;;21.50;91.60;;;;;;5059711;28;20080;-43
2022/07/25 04:36:00;;;;;;;17.17;15.05;;;21.50;92.00;;;;;;5060296;28;20128;-42
2022/07/25 04:38:26;;;;;;;16.67;14.63;;;21.50;91.80;;;;;;5061408;28;20048;-44
2022/07/25 04:40:53;;;;;;;29.13;16.23;;;21.50;91.90;;;;;;5049451;28;20120;-44
2022/07/25 04:43:20;;;;;;;17.55;14.38;;;21.50;91.90;;;;;;5053556;28;20134;-42
2022/07/25 04:45:47;;;;;;;17.13;15.05;;;21.50;91.90;;;;;;5057053;28;20047;-42
2022/07/25 04:48:15;;;;;;;18.60;15.38;;;21.60;92.00;;;;;;5054243;28;20132;-42
2022/07/25 04:50:42;;;;;;;18.50;15.38;;;21.60;92.10;;;;;;5056382;28;20343;-43
2022/07/25 04:53:08;;;;;;;16.05;14.07;;;21.60;92.00;;;;;;5058978;28;20131;-42
2022/07/25 04:55:37;;;;;;;17.00;14.85;;;21.70;92.00;;;;;;5053991;28;20132;-42
2022/07/25 04:58:04;;;;;;;18.40;15.38;;;21.70;92.10;;;;;;5059225;28;20372;-43
2022/07/25 05:00:31;;;;;;;18.40;14.73;;;21.70;92.20;;;;;;5054288;28;20048;-42
2022/07/25 05:02:57;;;;;;;17.95;15.70;;;21.70;92.30;;;;;;5053907;28;20037;-43
2022/07/25 05:05:26;;;;;;;19.17;14.35;;;21.70;92.40;;;;;;5053851;28;20045;-42
2022/07/25 05:07:55;;;;;;;20.17;16.10;;;21.80;92.30;;;;;;5054881;28;20053;-42
2022/07/25 05:10:22;;;;;;;23.15;16.58;;;21.80;92.50;;;;;;5055265;28;20125;-42
2022/07/25 05:12:49;;;;;;;24.92;16.98;;;21.80;92.50;;;;;;5053904;28;20056;-43
2022/07/25 05:15:16;;;;;;;19.25;17.10;;;21.90;92.50;;;;;;5054634;28;20457;-42
2022/07/25 05:17:42;;;;;;;22.42;16.85;;;21.90;92.60;;;;;;5059973;28;20135;-42
2022/07/25 05:20:10;;;;;;;19.17;16.55;;;22.00;92.60;;;;;;5062593;28;20071;-42
2022/07/25 05:22:38;;;;;;;20.50;16.38;;;22.00;92.60;;;;;;5058950;28;20048;-43
2022/07/25 05:25:07;;;;;;;20.10;17.30;;;22.10;92.60;;;;;;5052686;28;20124;-43
2022/07/25 05:27:34;;;;;;;21.73;16.63;;;22.10;92.50;;;;;;5054400;28;20436;-43
2022/07/25 05:30:01;;;;;;;23.02;16.23;;;22.10;92.50;;;;;;5064075;28;20163;-42
2022/07/25 05:32:27;;;;;;;25.70;17.73;;;22.20;92.40;;;;;;5061057;28;20040;-43
2022/07/25 05:34:54;;;;;;;24.27;17.35;;;22.20;92.40;;;;;;5064797;28;20056;-43
2022/07/25 05:37:21;;;;;;;18.60;15.68;;;22.30;92.50;;;;;;5047390;28;20049;-43
2022/07/25 05:39:49;;;;;;;18.83;16.08;;;22.30;92.30;;;;;;5062321;28;20088;-42
2022/07/25 05:42:16;;;;;;;18.48;16.17;;;22.40;92.30;;;;;;5057486;28;20124;-42
2022/07/25 05:44:43;;;;;;;21.83;14.52;;;22.40;92.40;;;;;;5068375;28;20136;-42
2022/07/25 05:47:10;;;;;;;17.25;14.73;;;22.40;92.30;;;;;;5065958;28;20111;-44
2022/07/25 05:49:37;;;;;;;19.48;14.13;;;22.50;92.30;;;;;;5053970;28;20040;-43
2022/07/25 05:52:04;;;;;;;17.10;13.95;;;22.50;92.20;;;;;;5051509;28;20136;-43
2022/07/25 05:54:31;;;;;;;19.38;13.98;;;22.60;92.00;;;;;;5043809;28;20076;-43
2022/07/25 05:57:00;;;;;;;18.45;13.30;;;22.70;92.00;;;;;;5052695;28;20653;-43
2022/07/25 05:59:26;;;;;;;17.80;12.07;;;22.80;91.90;;;;;;5052247;28;20048;-43
2022/07/25 06:01:53;;;;;;;17.35;12.38;;;22.80;91.80;;;;;;5050152;28;20140;-42
2022/07/25 06:04:20;;;;;;;20.27;12.38;;;22.90;91.60;;;;;;5048010;28;20160;-44
2022/07/25 06:06:49;;;;;;;17.08;12.27;;;22.90;91.60;;;;;;5052352;28;20170;-43
2022/07/25 06:09:16;;;;;;;18.20;12.55;;;23.10;91.60;;;;;;5051351;28;20052;-43
2022/07/25 06:11:43;;;;;;;13.48;11.80;;;23.20;91.40;;;;;;5056703;28;20097;-47
2022/07/25 06:14:11;;;;;;;19.05;12.13;;;23.30;91.30;;;;;;5067250;28;20052;-44
2022/07/25 06:16:38;;;;;;;13.98;11.98;;;23.40;91.20;;;;;;5050739;28;20049;-44
2022/07/25 06:19:05;;;;;;;17.27;12.02;;;23.40;91.00;;;;;;5053054;28;20124;-43
2022/07/25 06:21:31;;;;;;;13.70;11.57;;;23.50;90.80;;;;;;5063967;28;20048;-43
2022/07/25 06:23:58;;;;;;;17.42;12.15;;;23.60;90.60;;;;;;5068500;28;20044;-43
2022/07/25 06:26:25;;;;;;;17.88;11.48;;;23.60;90.80;;;;;;5052235;28;20085;-43
2022/07/25 06:28:52;;;;;;;14.18;11.32;;;23.70;90.70;;;;;;5051722;28;20053;-42
2022/07/25 06:31:20;;;;;;;13.43;10.93;;;23.70;90.70;;;;;;5063476;28;20075;-42
2022/07/25 06:33:46;;;;;;;16.10;10.48;;;23.80;90.60;;;;;;5072071;28;20047;-42
2022/07/25 06:36:13;;;;;;;14.40;10.20;;;24.00;90.70;;;;;;5071593;28;20060;-42
2022/07/25 06:38:40;;;;;;;12.35;10.25;;;24.00;90.60;;;;;;5063674;28;20140;-43
2022/07/25 06:41:07;;;;;;;11.90;9.63;;;24.20;90.60;;;;;;5060446;28;20497;-42
2022/07/25 06:43:33;;;;;;;10.70;9.60;;;24.20;90.50;;;;;;5051867;28;20075;-43
2022/07/25 06:46:01;;;;;;;21.98;9.40;;;24.30;90.30;;;;;;5062670;28;20086;-43
2022/07/25 06:48:29;;;;;;;16.67;9.70;;;24.50;90.00;;;;;;5057034;28;20056;-43
2022/07/25 06:50:56;;;;;;;13.25;9.32;;;24.60;89.50;;;;;;5063598;28;20428;-43
2022/07/25 06:53:23;;;;;;;14.15;9.70;;;24.70;89.20;;;;;;5060540;28;20345;-42
2022/07/25 06:55:49;;;;;;;13.32;9.43;;;24.90;88.40;;;;;;5050401;28;20136;-42
2022/07/25 06:58:16;;;;;;;13.55;10.20;;;25.10;88.20;;;;;;5051802;28;20135;-43
2022/07/25 07:00:43;;;;;;;11.90;9.48;;;25.30;87.60;;;;;;5049748;28;20131;-44
2022/07/25 07:03:10;;;;;;;15.88;10.80;;;25.40;87.40;;;;;;5061942;28;20048;-43
2022/07/25 07:05:40;;;;;;;17.25;10.77;;;25.50;87.20;;;;;;5072030;28;20048;-43
2022/07/25 07:08:06;;;;;;;13.48;10.52;;;25.70;86.70;;;;;;5056024;28;20044;-44
2022/07/25 07:10:33;;;;;;;15.18;10.95;;;25.90;86.10;;;;;;5057949;28;20449;-44
2022/07/25 07:13:04;;;;;;;15.57;9.93;;;26.10;85.40;;;;;;5048544;28;20056;-44
2022/07/25 07:15:31;;;;;;;;;;;26.20;85.10;;;;;;5049937;28;20067;-44
2022/07/25 07:17:58;;;;;;;13.85;10.90;;;26.20;85.50;;;;;;5059287;28;20379;-43
2022/07/25 07:20:25;;;;;;;12.05;9.77;;;26.10;85.00;;;;;;5051713;28;20048;-43
2022/07/25 07:22:53;;;;;;;13.32;10.40;;;26.20;85.10;;;;;;5048603;28;20059;-42
2022/07/25 07:25:22;;;;;;;17.63;10.25;;;26.20;85.30;;;;;;5051848;28;20128;-43
2022/07/25 07:27:49;;;;;;;17.40;11.52;;;26.20;85.50;;;;;;5070393;28;20048;-43
2022/07/25 07:30:16;;;;;;;13.73;11.40;;;26.20;85.30;;;;;;5051653;28;20519;-43
2022/07/25 07:32:42;;;;;;;13.85;11.40;;;26.20;85.20;;;;;;5049951;28;20764;-43
2022/07/25 07:35:10;;;;;;;15.60;10.80;;;26.20;85.10;;;;;;5051898;28;20048;-42
2022/07/25 07:37:36;;;;;;;14.45;11.40;;;26.10;85.50;;;;;;5047982;28;20083;-43
2022/07/25 07:40:06;;;;;;;12.52;10.13;;;26.10;85.60;;;;;;5050553;28;20041;-43
2022/07/25 07:42:37;;;;;;;13.98;12.40;;;26.10;85.50;;;;;;5060976;28;20131;-43
2022/07/25 07:45:11;;;;;;;13.75;11.30;;;26.00;85.60;;;;;;5074385;28;20045;-43
2022/07/25 07:47:38;;;;;;;18.08;11.23;;;26.00;85.80;;;;;;5070545;28;20076;-42
2022/07/25 07:50:05;;;;;;;13.93;12.27;;;26.00;86.00;;;;;;5056723;28;20140;-42
2022/07/25 07:52:32;;;;;;;17.15;12.10;;;26.20;86.00;;;;;;5055166;28;20132;-42
2022/07/25 07:57:44;;;;;;;16.13;12.57;;;26.30;86.40;;;;;;5054345;28;20444;-42
2022/07/25 08:00:12;;;;;;;14.73;12.00;;;26.40;85.50;;;;;;5068247;28;20084;-43
2022/07/25 08:02:42;;;;;;;14.65;11.70;;;26.40;85.30;;;;;;5075253;28;20098;-43
2022/07/25 08:05:09;;;;;;;13.20;10.27;;;26.50;85.50;;;;;;5072364;28;20064;-43
2022/07/25 08:07:36;;;;;;;13.30;11.25;;;26.50;85.00;;;;;;5064832;28;20135;-43
2022/07/25 08:10:03;;;;;;;13.15;10.52;;;26.50;85.00;;;;;;5063235;28;20370;-43
2022/07/25 08:12:30;;;;;;;13.50;10.10;;;26.60;84.60;;;;;;5058558;28;20072;-43
2022/07/25 08:14:58;;;;;;;13.93;10.32;;;26.50;84.30;;;;;;5071749;28;20093;-43
2022/07/25 08:17:25;;;;;;;13.63;9.57;;;26.50;84.20;;;;;;5073664;28;20131;-44
2022/07/25 08:19:52;;;;;;;12.52;9.77;;;26.40;84.30;;;;;;5052944;28;20487;-43
2022/07/25 08:22:19;;;;;;;10.43;9.32;;;26.40;84.60;;;;;;5048282;28;20136;-44
2022/07/25 08:24:45;;;;;;;13.85;10.82;;;26.40;84.50;;;;;;5068433;28;20431;-44
2022/07/25 08:27:12;;;;;;;12.38;9.23;;;26.60;84.10;;;;;;5074946;28;20098;-44
2022/07/25 08:29:39;;;;;;;13.25;9.43;;;26.70;84.20;;;;;;5075091;28;20127;-43
2022/07/25 08:32:07;;;;;;;13.45;8.88;;;26.90;83.60;;;;;;5069994;28;20132;-44
2022/07/25 08:34:34;;;;;;;10.65;8.98;;;26.90;83.50;;;;;;5070156;28;20087;-44
2022/07/25 08:37:01;;;;;;;11.57;9.10;;;27.00;83.10;;;;;;5050193;28;20128;-44
2022/07/25 08:39:28;;;;;;;8.77;7.35;;;27.10;82.90;;;;;;5055768;28;20051;-44
2022/07/25 08:41:55;;;;;;;10.13;7.93;;;27.20;83.10;;;;;;5055549;28;20148;-43
2022/07/25 08:44:22;;;;;;;10.52;7.43;;;27.20;82.20;;;;;;5061646;28;20131;-44
2022/07/25 08:46:48;;;;;;;9.43;7.28;;;27.10;82.40;;;;;;5067844;28;20077;-44
2022/07/25 08:49:17;;;;;;;9.45;7.00;;;27.10;82.30;;;;;;5054513;28;20053;-44
2022/07/25 08:51:43;;;;;;;9.38;6.97;;;27.00;82.10;;;;;;5053684;28;20135;-44
2022/07/25 08:54:10;;;;;;;10.02;6.82;;;27.00;82.50;;;;;;5070354;28;20127;-44
2022/07/25 08:56:37;;;;;;;6.63;5.85;;;26.90;82.50;;;;;;5071627;28;20063;-44
2022/07/25 08:59:04;;;;;;;8.95;7.28;;;26.90;82.80;;;;;;5074488;28;20072;-43
2022/07/25 09:01:31;;;;;;;13.45;7.65;;;26.90;82.60;;;;;;5061056;28;20049;-43
2022/07/25 09:03:57;;;;;;;9.27;6.63;;;27.00;82.60;;;;;;5047557;28;20076;-43
2022/07/25 09:06:25;;;;;;;9.88;6.65;;;26.90;82.80;;;;;;5052491;28;20049;-43
2022/07/25 09:08:59;;;;;;;9.85;6.88;;;27.00;83.10;;;;;;5055439;28;20095;-43
2022/07/25 09:11:30;;;;;;;12.02;7.63;;;27.10;83.30;;;;;;5052717;28;20490;-43
2022/07/25 09:14:01;;;;;;;12.18;7.50;;;27.10;83.10;;;;;;5052601;28;20072;-43
2022/07/25 09:16:31;;;;;;;14.95;8.63;;;27.10;83.20;;;;;;5053574;28;20049;-44
2022/07/25 09:19:09;;;;;;;12.57;7.57;;;27.00;83.60;;;;;;5059275;28;20079;-43
2022/07/25 09:21:38;;;;;;;11.55;4.85;;;27.00;82.10;;;;;;5073634;28;20048;-43
2022/07/25 09:24:09;;;;;;;4.22;3.30;;;26.90;81.30;;;;;;5072479;28;20076;-44
2022/07/25 09:26:43;;;;;;;;;;;26.80;80.10;;;;;;5074292;28;20136;-42
2022/07/25 09:29:16;;;;;;;5.15;3.00;;;26.80;79.90;;;;;;5049101;28;19924;-43
2022/07/25 09:31:43;;;;;;;5.38;2.83;;;26.80;79.90;;;;;;5053590;28;20084;-42
2022/07/25 09:34:11;;;;;;;4.93;2.83;;;26.90;79.40;;;;;;5053224;28;20095;-43
2022/07/25 09:36:42;;;;;;;4.20;2.85;;;27.00;79.20;;;;;;5053570;28;20045;-42
2022/07/25 09:39:08;;;;;;;3.90;2.60;;;27.20;79.10;;;;;;5053667;28;20041;-43
2022/07/25 09:41:35;;;;;;;4.22;2.70;;;27.30;77.50;;;;;;5052168;28;20072;-43
2022/07/25 09:44:02;;;;;;;11.65;3.65;;;27.30;76.20;;;;;;5051136;28;20049;-43
2022/07/25 09:46:30;;;;;;;3.75;2.67;;;27.50;76.80;;;;;;5064441;28;20049;-43
2022/07/25 09:48:57;;;;;;;5.95;2.22;;;27.60;75.20;;;;;;5062348;28;20063;-42
2022/07/25 09:51:24;;;;;;;5.93;2.55;;;27.70;74.90;;;;;;5073221;28;20048;-43
2022/07/25 09:53:52;;;;;;;5.68;2.42;;;27.80;74.80;;;;;;5073325;28;20079;-43
2022/07/25 09:56:19;;;;;;;2.95;2.03;;;27.70;74.50;;;;;;5071716;28;20119;-44
2022/07/25 09:58:46;;;;;;;2.53;1.88;;;27.70;74.80;;;;;;5058801;28;20103;-44
2022/07/25 10:01:16;;;;;;;5.90;2.00;;;27.60;74.90;;;;;;5052754;28;20139;-43
2022/07/25 10:03:48;;;;;;;2.53;2.03;;;27.50;74.90;;;;;;5058127;28;20076;-43
2022/07/25 10:06:19;;;;;;;5.45;2.05;;;27.50;75.30;;;;;;5072769;28;20086;-43
2022/07/25 10:08:46;;;;;;;10.98;2.80;;;27.50;75.70;;;;;;5072978;28;20555;-43
2022/07/25 10:11:21;;;;;;;3.33;2.03;;;27.50;75.50;;;;;;5070092;28;20063;-43
2022/07/25 10:13:48;;;;;;;4.15;2.25;;;27.50;76.00;;;;;;5068544;28;20119;-43
2022/07/25 10:16:16;;;;;;;3.50;1.55;;;27.70;76.50;;;;;;5072648;28;20074;-43
2022/07/25 10:18:48;;;;;;;3.70;1.60;;;27.90;75.70;;;;;;5061576;28;20044;-43
2022/07/25 10:21:15;;;;;;;3.97;1.58;;;28.20;75.60;;;;;;5052580;28;20389;-43
2022/07/25 10:23:42;;;;;;;6.82;1.40;;;28.30;75.20;;;;;;5052992;28;20076;-43
2022/07/25 10:26:09;;;;;;;4.60;1.42;;;28.30;74.90;;;;;;5045944;28;20081;-43
2022/07/25 10:28:47;;;;;;;3.30;1.50;;;28.30;76.20;;;;;;5056641;28;20048;-43
2022/07/25 10:31:16;;;;;;;2.15;1.30;;;28.30;77.00;;;;;;5063051;28;20135;-43
2022/07/25 10:33:43;;;;;;;2.50;1.08;;;28.40;76.70;;;;;;5067454;28;20044;-43
2022/07/25 10:36:10;;;;;;;3.92;1.20;;;28.40;76.30;;;;;;5063625;28;20575;-44
2022/07/25 10:38:39;;;;;;;3.35;1.00;;;28.30;76.20;;;;;;5068009;28;20044;-44
2022/07/25 10:41:07;;;;;;;3.58;1.00;;;28.20;76.20;;;;;;5049878;28;20121;-44
2022/07/25 10:43:37;;;;;;;2.05;0.98;;;28.00;76.40;;;;;;5049201;28;20475;-44
2022/07/25 10:46:12;;;;;;;3.58;1.08;;;28.00;76.70;;;;;;5051010;28;20123;-44
2022/07/25 10:48:38;;;;;;;5.60;1.30;;;27.90;77.20;;;;;;5070830;28;20048;-43
2022/07/25 10:51:06;;;;;;;6.30;1.27;;;27.70;78.10;;;;;;5059415;28;20476;-43
2022/07/25 10:53:34;;;;;;;9.45;2.58;;;27.60;79.30;;;;;;5054828;28;20083;-44
2022/07/25 10:56:06;;;;;;;6.07;1.63;;;27.50;80.20;;;;;;5052120;28;20056;-44
2022/07/25 10:58:47;;;;;;;7.50;1.83;;;27.30;81.70;;;;;;5057557;28;20044;-44
2022/07/25 11:01:19;;;;;;;;;;;27.20;83.40;;;;;;5073260;28;20079;-43
2022/07/25 11:03:46;;;;;;;7.32;2.10;;;27.00;83.50;;;;;;5056662;28;19920;-44
2022/07/25 11:06:13;;;;;;;9.73;1.77;;;26.90;84.50;;;;;;5045101;28;20084;-44
2022/07/25 11:08:40;;;;;;;8.70;2.03;;;26.90;85.50;;;;;;5052220;28;20111;-44
2022/07/25 11:11:07;;;;;;;7.10;1.95;;;26.90;86.30;;;;;;5049993;28;20048;-44
2022/07/25 11:13:37;;;;;;;12.60;2.25;;;26.80;86.80;;;;;;5052661;28;20454;-44
2022/07/25 11:16:04;;;;;;;9.35;2.75;;;26.80;87.70;;;;;;5051396;28;20128;-44
2022/07/25 11:18:33;;;;;;;9.27;2.67;;;26.70;87.30;;;;;;5054449;28;20137;-44
2022/07/25 11:21:00;;;;;;;8.15;2.40;;;26.70;87.40;;;;;;5063131;28;20041;-45
2022/07/25 11:23:28;;;;;;;11.60;2.78;;;26.70;87.10;;;;;;5070590;28;20135;-43
2022/07/25 11:26:04;;;;;;;7.57;2.58;;;26.70;86.80;;;;;;5063125;28;20129;-44
2022/07/25 11:28:38;;;;;;;6.70;2.35;;;26.70;86.60;;;;;;5050928;28;20048;-43
2022/07/25 11:31:05;;;;;;;8.68;2.60;;;26.80;85.90;;;;;;5054868;28;21266;-43
2022/07/25 11:33:33;;;;;;;8.27;2.13;;;26.80;85.20;;;;;;5053600;28;20137;-43
2022/07/25 11:36:00;;;;;;;8.13;2.13;;;26.80;85.10;;;;;;5059365;28;20763;-43
2022/07/25 11:38:27;;;;;;;7.45;2.60;;;26.90;84.60;;;;;;5059914;28;20083;-43
2022/07/25 11:40:53;;;;;;;8.60;2.55;;;26.90;84.30;;;;;;5064323;28;20443;-43
2022/07/25 11:43:20;;;;;;;5.65;2.28;;;27.00;83.80;;;;;;5052463;28;20084;-43
2022/07/25 11:45:55;;;;;;;8.70;2.47;;;27.00;83.10;;;;;;5052484;28;20127;-43
2022/07/25 11:48:29;;;;;;;9.50;2.85;;;27.00;83.10;;;;;;5072475;28;20458;-44
2022/07/25 11:50:57;;;;;;;7.65;2.40;;;26.90;82.90;;;;;;5067206;28;20102;-44
2022/07/25 11:53:24;;;;;;;8.35;2.92;;;26.90;82.40;;;;;;5052424;28;20084;-43
2022/07/25 11:55:51;;;;;;;11.35;3.15;;;26.90;82.40;;;;;;5051229;28;20370;-43
2022/07/25 11:58:18;;;;;;;7.65;2.70;;;27.00;82.40;;;;;;5051994;28;20472;-43
2022/07/25 12:00:47;;;;;;;10.95;2.63;;;27.00;82.60;;;;;;5051479;28;20472;-43
2022/07/25 12:03:14;;;;;;;12.13;3.13;;;26.90;82.20;;;;;;5051291;28;20143;-43
2022/07/25 12:05:41;;;;;;;8.88;2.58;;;26.70;81.70;;;;;;5052373;28;20540;-43
2022/07/25 12:08:10;;;;;;;10.23;2.58;;;26.50;82.30;;;;;;5056500;28;20456;-43
2022/07/25 12:10:39;;;;;;;7.53;2.42;;;26.30;83.10;;;;;;5068898;28;20072;-43
2022/07/25 12:13:07;;;;;;;11.93;2.50;;;26.30;83.50;;;;;;5072339;28;20083;-42
2022/07/25 12:15:36;;;;;;;10.88;2.90;;;26.40;83.20;;;;;;5066850;28;20049;-44
2022/07/25 12:18:03;;;;;;;5.03;2.00;;;26.40;83.10;;;;;;5051133;28;20124;-43
2022/07/25 12:20:30;;;;;;;8.00;2.47;;;26.50;81.70;;;;;;5070335;28;20040;-43
2022/07/25 12:22:58;;;;;;;7.57;2.22;;;26.40;81.70;;;;;;5071286;28;20110;-43
2022/07/25 12:25:28;;;;;;;9.15;2.17;;;26.50;81.70;;;;;;5071223;28;20480;-43
2022/07/25 12:27:57;;;;;;;6.93;1.92;;;26.60;81.10;;;;;;5057932;28;20355;-42
2022/07/25 12:30:24;;;;;;;5.70;1.70;;;26.70;80.30;;;;;;5055529;28;20132;-43
2022/07/25 12:32:51;;;;;;;8.15;2.30;;;26.70;79.80;;;;;;5055282;28;20171;-43
2022/07/25 12:35:17;;;;;;;5.05;1.92;;;26.70;78.80;;;;;;5055769;28;20057;-42
2022/07/25 12:37:44;;;;;;;8.15;2.13;;;26.60;78.40;;;;;;5054852;28;20068;-42
2022/07/25 12:40:11;;;;;;;8.45;1.85;;;26.50;77.90;;;;;;5054347;28;20469;-43
2022/07/25 12:42:40;;;;;;;6.68;1.95;;;26.50;78.10;;;;;;5053476;28;20095;-44